createdAt,value
2018-10-09T00:00:36.357Z,99.90
2018-10-09T00:03:05.136Z,99.90
2018-10-09T00:05:33.900Z,99.90
2018-10-09T00:08:02.860Z,99.90
2018-10-09T00:10:32.281Z,99.90
2018-10-09T00:13:01.335Z,99.90
2018-10-09T00:15:30.208Z,99.90
2018-10-09T00:17:59.189Z,99.90
2018-10-09T00:20:28.374Z,99.90
2018-10-09T00:23:00.221Z,99.90
2018-10-09T00:25:29.779Z,99.90
2018-10-09T00:27:58.679Z,99.90
2018-10-09T00:30:27.682Z,99.90
2018-10-09T00:32:56.753Z,99.90
2018-10-09T00:35:25.503Z,99.90
2018-10-09T00:37:54.141Z,99.90
2018-10-09T00:40:22.813Z,99.90
2018-10-09T00:42:51.812Z,99.90
2018-10-09T00:45:20.499Z,99.90
2018-10-09T00:47:49.343Z,99.90
2018-10-09T00:50:18.253Z,99.90
2018-10-09T00:52:47.229Z,99.90
2018-10-09T00:55:17.119Z,99.90
2018-10-09T00:57:46.038Z,99.90
2018-10-09T01:00:15.047Z,99.90
2018-10-09T01:02:44.037Z,99.90
2018-10-09T01:05:12.965Z,99.90
2018-10-09T01:07:42.151Z,99.90
2018-10-09T01:10:10.987Z,99.90
2018-10-09T01:12:39.803Z,99.90
2018-10-09T01:15:08.730Z,99.90
2018-10-09T01:17:38.051Z,99.90
2018-10-09T01:20:07.011Z,99.90
2018-10-09T01:22:36.142Z,99.90
2018-10-09T01:25:05.158Z,99.90
2018-10-09T01:27:33.897Z,99.90
2018-10-09T01:30:02.636Z,99.90
2018-10-09T01:32:31.391Z,99.90
2018-10-09T01:35:00.213Z,99.90
2018-10-09T01:37:29.077Z,99.90
2018-10-09T01:39:57.809Z,99.90
2018-10-09T01:42:26.570Z,99.90
2018-10-09T01:44:55.366Z,99.90
2018-10-09T01:47:24.285Z,99.90
2018-10-09T01:49:53.080Z,99.90
2018-10-09T01:52:22.016Z,99.90
2018-10-09T01:54:50.728Z,99.90
2018-10-09T01:57:19.458Z,99.90
2018-10-09T01:59:48.290Z,99.90
2018-10-09T02:02:17.062Z,99.90
2018-10-09T02:04:45.874Z,99.90
2018-10-09T02:07:14.566Z,99.90
2018-10-09T02:09:43.382Z,99.90
2018-10-09T02:12:12.142Z,99.90
2018-10-09T02:14:41.186Z,99.90
2018-10-09T02:17:09.940Z,99.90
2018-10-09T02:19:38.608Z,99.90
2018-10-09T02:22:08.276Z,99.90
2018-10-09T02:24:37.054Z,99.90
2018-10-09T02:27:05.910Z,99.90
2018-10-09T02:29:34.536Z,99.90
2018-10-09T02:32:04.706Z,99.90
2018-10-09T02:34:33.340Z,99.90
2018-10-09T02:37:02.009Z,99.90
2018-10-09T02:39:30.784Z,99.90
2018-10-09T02:41:59.717Z,99.90
2018-10-09T02:44:28.456Z,99.90
2018-10-09T02:46:57.226Z,99.90
2018-10-09T02:49:25.957Z,99.90
2018-10-09T02:51:54.832Z,99.90
2018-10-09T02:54:26.233Z,99.90
2018-10-09T02:56:55.305Z,99.90
2018-10-09T02:59:24.145Z,99.90
2018-10-09T03:01:53.029Z,99.90
2018-10-09T03:04:21.835Z,99.90
2018-10-09T03:06:50.504Z,99.90
2018-10-09T03:09:19.197Z,99.90
2018-10-09T03:11:47.867Z,99.90
2018-10-09T03:14:16.699Z,99.90
2018-10-09T03:16:45.619Z,99.90
2018-10-09T03:19:14.375Z,99.90
2018-10-09T03:21:43.154Z,99.90
2018-10-09T03:24:12.067Z,99.90
2018-10-09T03:26:40.711Z,99.90
2018-10-09T03:29:09.440Z,99.90
2018-10-09T03:31:38.283Z,99.90
2018-10-09T03:34:07.223Z,99.90
2018-10-09T03:36:36.821Z,99.90
2018-10-09T03:39:07.532Z,99.90
2018-10-09T03:41:36.312Z,99.90
2018-10-09T03:44:05.190Z,99.90
2018-10-09T03:46:34.123Z,99.90
2018-10-09T03:49:03.061Z,99.90
2018-10-09T03:51:31.770Z,99.90
2018-10-09T03:54:00.549Z,99.90
2018-10-09T03:56:29.607Z,99.90
2018-10-09T03:58:58.451Z,99.90
2018-10-09T04:01:27.298Z,99.90
2018-10-09T04:03:56.185Z,99.90
2018-10-09T04:06:25.057Z,99.90
2018-10-09T04:08:54.015Z,99.90
2018-10-09T04:11:22.679Z,99.90
2018-10-09T04:13:51.502Z,99.90
2018-10-09T04:16:20.516Z,99.90
2018-10-09T04:18:49.401Z,99.90
2018-10-09T04:21:18.593Z,99.90
2018-10-09T04:23:47.442Z,99.90
2018-10-09T04:26:16.217Z,99.90
2018-10-09T04:28:45.074Z,99.90
2018-10-09T04:31:14.033Z,99.90
2018-10-09T04:33:42.889Z,99.90
2018-10-09T04:36:11.764Z,99.90
2018-10-09T04:38:40.623Z,99.90
2018-10-09T04:41:09.347Z,99.90
2018-10-09T04:43:38.315Z,99.90
2018-10-09T04:46:07.292Z,99.90
2018-10-09T04:48:36.555Z,99.90
2018-10-09T04:51:05.373Z,99.90
2018-10-09T04:53:34.119Z,99.90
2018-10-09T04:56:02.939Z,99.90
2018-10-09T04:58:31.709Z,99.90
2018-10-09T05:01:00.541Z,99.90
2018-10-09T05:03:29.411Z,99.90
2018-10-09T05:05:58.279Z,99.90
2018-10-09T05:08:26.975Z,99.90
2018-10-09T05:10:55.775Z,99.90
2018-10-09T05:13:24.534Z,99.90
2018-10-09T05:15:53.534Z,99.90
2018-10-09T05:18:22.384Z,99.90
2018-10-09T05:20:51.113Z,99.90
2018-10-09T05:23:20.116Z,99.90
2018-10-09T05:25:49.043Z,99.90
2018-10-09T05:28:17.927Z,99.90
2018-10-09T05:30:46.709Z,99.90
2018-10-09T05:33:15.434Z,99.90
2018-10-09T05:35:44.242Z,99.90
2018-10-09T05:38:13.133Z,99.90
2018-10-09T05:40:42.038Z,99.90
2018-10-09T05:43:10.911Z,99.90
2018-10-09T05:45:41.075Z,99.90
2018-10-09T05:48:10.655Z,99.90
2018-10-09T05:50:39.618Z,99.90
2018-10-09T05:53:08.283Z,99.90
2018-10-09T05:55:37.302Z,99.90
2018-10-09T05:58:06.283Z,99.90
2018-10-09T06:00:34.778Z,99.90
2018-10-09T06:03:03.661Z,99.90
2018-10-09T06:05:32.290Z,99.90
2018-10-09T06:08:00.903Z,99.90
2018-10-09T06:10:29.940Z,99.90
2018-10-09T06:12:58.646Z,99.90
2018-10-09T06:15:27.432Z,99.90
2018-10-09T06:17:56.106Z,99.90
2018-10-09T06:20:24.790Z,99.90
2018-10-09T06:22:53.608Z,99.90
2018-10-09T06:25:22.248Z,99.90
2018-10-09T06:27:51.163Z,99.90
2018-10-09T06:30:20.260Z,99.90
2018-10-09T06:32:49.233Z,99.90
2018-10-09T06:35:18.245Z,99.90
2018-10-09T06:37:47.196Z,99.90
2018-10-09T06:40:16.222Z,99.90
2018-10-09T06:42:45.202Z,99.90
2018-10-09T06:45:14.156Z,99.90
2018-10-09T06:47:43.139Z,99.90
2018-10-09T06:50:12.192Z,99.90
2018-10-09T06:52:41.410Z,99.90
2018-10-09T06:55:10.340Z,99.90
2018-10-09T06:57:39.370Z,99.90
2018-10-09T07:00:08.871Z,99.90
2018-10-09T07:02:38.072Z,99.90
2018-10-09T07:05:07.208Z,99.90
2018-10-09T07:07:36.171Z,99.90
2018-10-09T07:10:05.277Z,99.90
2018-10-09T07:12:34.274Z,99.90
2018-10-09T07:15:03.460Z,99.90
2018-10-09T07:17:32.396Z,99.90
2018-10-09T07:20:01.399Z,99.90
2018-10-09T07:22:30.354Z,99.90
2018-10-09T07:24:59.322Z,99.90
2018-10-09T07:27:28.269Z,99.90
2018-10-09T07:29:57.289Z,99.90
2018-10-09T07:32:26.242Z,99.90
2018-10-09T07:34:55.275Z,99.90
2018-10-09T07:37:24.314Z,99.90
2018-10-09T07:39:53.366Z,99.90
2018-10-09T07:42:22.315Z,99.90
2018-10-09T07:44:51.285Z,99.90
2018-10-09T07:47:20.381Z,99.90
2018-10-09T07:49:49.415Z,99.90
2018-10-09T07:52:18.441Z,99.90
2018-10-09T07:54:47.487Z,99.90
2018-10-09T07:57:19.946Z,99.90
2018-10-09T07:59:48.989Z,99.90
2018-10-09T08:02:18.159Z,99.90
2018-10-09T08:04:47.322Z,99.90
2018-10-09T08:07:16.359Z,99.90
2018-10-09T08:09:45.375Z,99.90
2018-10-09T08:12:14.481Z,99.90
2018-10-09T08:14:43.803Z,99.90
2018-10-09T08:17:12.995Z,99.90
2018-10-09T08:19:42.378Z,99.90
2018-10-09T08:22:11.583Z,99.90
2018-10-09T08:24:40.652Z,99.90
2018-10-09T08:27:09.778Z,99.90
2018-10-09T08:29:38.859Z,99.90
2018-10-09T08:32:08.223Z,99.90
2018-10-09T08:34:37.587Z,99.90
2018-10-09T08:37:06.825Z,99.90
2018-10-09T08:39:35.970Z,99.90
2018-10-09T08:42:06.172Z,99.90
2018-10-09T08:44:35.305Z,99.90
2018-10-09T08:47:04.541Z,99.90
2018-10-09T08:49:33.780Z,99.90
2018-10-09T08:52:02.998Z,99.90
2018-10-09T08:54:32.108Z,99.90
2018-10-09T08:57:01.312Z,99.90
2018-10-09T08:59:30.470Z,99.90
2018-10-09T09:01:59.834Z,99.90
2018-10-09T09:04:29.154Z,99.90
2018-10-09T09:06:58.535Z,99.90
2018-10-09T09:09:27.709Z,99.90
2018-10-09T09:11:56.739Z,99.90
2018-10-09T09:14:25.913Z,99.90
2018-10-09T09:16:55.043Z,99.90
2018-10-09T09:19:24.363Z,99.90
2018-10-09T09:21:53.617Z,99.90
2018-10-09T09:24:22.806Z,99.90
2018-10-09T09:26:52.238Z,99.90
2018-10-09T09:29:21.475Z,99.90
2018-10-09T09:31:50.810Z,99.90
2018-10-09T09:34:20.004Z,99.90
2018-10-09T09:36:49.329Z,99.90
2018-10-09T09:39:18.606Z,99.90
2018-10-09T09:41:47.740Z,99.90
2018-10-09T09:44:17.918Z,99.90
2018-10-09T09:46:47.207Z,99.90
2018-10-09T09:49:16.375Z,99.90
2018-10-09T09:51:45.760Z,99.90
2018-10-09T09:54:15.119Z,99.90
2018-10-09T09:56:44.483Z,99.90
2018-10-09T09:59:14.832Z,99.90
2018-10-09T10:01:44.682Z,99.90
2018-10-09T10:04:14.809Z,99.90
2018-10-09T10:06:44.192Z,99.90
2018-10-09T10:09:13.609Z,99.90
2018-10-09T10:11:42.791Z,99.90
2018-10-09T10:14:12.113Z,99.90
2018-10-09T10:16:41.614Z,99.90
2018-10-09T10:19:11.011Z,99.90
2018-10-09T10:21:40.383Z,99.90
2018-10-09T10:24:09.656Z,99.90
2018-10-09T10:26:38.809Z,99.90
2018-10-09T10:29:08.032Z,99.90
2018-10-09T10:31:37.104Z,99.90
2018-10-09T10:34:08.209Z,99.90
2018-10-09T10:36:37.466Z,99.90
2018-10-09T10:39:09.475Z,99.90
2018-10-09T10:41:38.573Z,99.90
2018-10-09T10:44:07.850Z,99.90
2018-10-09T10:46:39.386Z,99.90
2018-10-09T10:49:11.163Z,99.90
2018-10-09T10:51:40.393Z,99.90
2018-10-09T10:54:09.896Z,99.90
2018-10-09T10:56:39.298Z,99.90
2018-10-09T10:59:16.077Z,99.90
2018-10-09T11:01:45.416Z,99.90
2018-10-09T11:04:15.428Z,99.90
2018-10-09T11:06:44.908Z,99.90
2018-10-09T11:09:14.247Z,99.90
2018-10-09T11:12:02.430Z,99.90
2018-10-09T11:14:31.756Z,99.90
2018-10-09T11:17:01.082Z,99.90
2018-10-09T11:23:04.088Z,99.90
2018-10-09T11:25:34.995Z,99.90
2018-10-09T11:30:56.612Z,99.90
2018-10-09T11:33:25.680Z,99.90
2018-10-09T11:35:54.761Z,99.90
2018-10-09T11:41:09.991Z,99.90
2018-10-09T11:43:39.029Z,99.90
2018-10-09T11:49:00.567Z,99.90
2018-10-09T11:51:38.204Z,99.90
2018-10-09T11:54:07.433Z,99.90
2018-10-09T12:03:27.748Z,99.90
2018-10-09T12:05:58.015Z,99.90
2018-10-09T12:08:27.172Z,99.90
2018-10-09T12:10:56.207Z,99.90
2018-10-09T12:19:24.513Z,99.90
2018-10-09T12:21:53.749Z,99.90
2018-10-09T12:25:43.769Z,99.90
2018-10-09T12:31:14.059Z,99.90
2018-10-09T12:33:43.213Z,99.20
2018-10-09T12:36:12.245Z,99.10
2018-10-09T12:38:41.375Z,97.00
2018-10-09T12:41:10.435Z,94.10
2018-10-09T12:43:53.509Z,93.40
2018-10-09T12:46:22.590Z,93.30
2018-10-09T12:48:51.768Z,91.30
2018-10-09T12:51:20.929Z,90.40
2018-10-09T12:54:11.661Z,89.50
2018-10-09T12:56:40.746Z,88.60
2018-10-09T12:59:11.971Z,88.30
2018-10-09T13:01:41.031Z,87.10
2018-10-09T13:04:10.016Z,89.50
2018-10-09T13:06:39.417Z,81.50
2018-10-09T13:09:11.056Z,79.80
2018-10-09T13:11:58.069Z,77.80
2018-10-09T13:14:45.806Z,77.80
2018-10-09T13:20:20.954Z,80.60
2018-10-09T13:23:03.880Z,78.40
2018-10-09T13:25:32.925Z,78.50
2018-10-09T13:28:02.015Z,79.20
2018-10-09T13:36:16.279Z,79.10
2018-10-09T13:38:45.313Z,75.60
2018-10-09T13:58:37.719Z,74.40
2018-10-09T14:01:06.877Z,71.60
2018-10-09T14:20:23.819Z,73.00
2018-10-09T14:40:12.538Z,77.20
2018-10-09T14:48:43.097Z,79.60
2018-10-09T14:51:18.841Z,75.90
2018-10-09T14:59:45.821Z,75.70
2018-10-09T15:36:53.701Z,90.30
2018-10-09T15:39:27.860Z,91.90
2018-10-09T15:41:58.923Z,92.90
2018-10-09T15:44:28.347Z,93.50
2018-10-09T15:46:58.660Z,93.40
2018-10-09T15:49:27.801Z,94.00
2018-10-09T15:51:58.828Z,94.80
2018-10-09T15:54:28.055Z,95.00
2018-10-09T15:57:00.533Z,95.20
2018-10-09T15:59:29.561Z,95.60
2018-10-09T16:01:59.086Z,95.50
2018-10-09T16:04:27.840Z,96.10
2018-10-09T16:07:02.705Z,96.80
2018-10-09T16:09:34.924Z,97.90
2018-10-09T16:12:09.758Z,99.20
2018-10-09T16:14:38.658Z,99.90
2018-10-09T16:17:08.665Z,99.90
2018-10-09T16:19:38.257Z,99.90
2018-10-09T16:22:11.253Z,99.90
2018-10-09T16:25:01.111Z,99.90
2018-10-09T16:27:31.458Z,99.90
2018-10-09T16:30:01.211Z,99.90
2018-10-09T16:32:37.014Z,99.90
2018-10-09T16:35:08.395Z,99.90
2018-10-09T16:37:39.032Z,99.90
2018-10-09T16:40:08.969Z,99.90
2018-10-09T16:42:43.826Z,99.90
2018-10-09T16:45:33.284Z,99.90
2018-10-09T16:48:04.335Z,99.90
2018-10-09T16:50:35.086Z,99.90
2018-10-09T16:53:04.808Z,99.90
2018-10-09T16:55:41.937Z,99.90
2018-10-09T16:58:10.978Z,99.90
2018-10-09T17:00:48.407Z,99.90
2018-10-09T17:03:19.457Z,99.90
2018-10-09T17:05:49.927Z,99.90
2018-10-09T17:08:24.068Z,99.90
2018-10-09T17:10:53.706Z,99.90
2018-10-09T17:13:29.568Z,99.90
2018-10-09T17:16:03.017Z,99.90
2018-10-09T17:18:36.667Z,99.90
2018-10-09T17:21:11.228Z,99.90
2018-10-09T17:23:50.683Z,99.90
2018-10-09T17:26:21.880Z,99.90
2018-10-09T17:28:58.380Z,99.90
2018-10-09T17:31:29.043Z,99.90
2018-10-09T17:34:04.962Z,99.90
2018-10-09T17:36:38.130Z,99.90
2018-10-09T17:39:12.416Z,99.90
2018-10-09T17:41:42.775Z,99.90
2018-10-09T17:44:22.046Z,99.90
2018-10-09T17:47:19.734Z,99.90
2018-10-09T17:49:54.404Z,99.90
2018-10-09T17:52:47.690Z,99.90
2018-10-09T17:55:20.491Z,99.90
2018-10-09T17:58:07.057Z,99.90
2018-10-09T18:00:41.240Z,99.90
2018-10-09T18:03:12.018Z,99.90
2018-10-09T18:06:14.568Z,99.90
2018-10-09T18:08:44.754Z,99.90
2018-10-09T18:11:14.566Z,99.90
2018-10-09T18:13:47.787Z,99.90
2018-10-09T18:16:21.330Z,99.90
2018-10-09T18:18:54.070Z,99.90
2018-10-09T18:21:25.479Z,99.90
2018-10-09T18:23:58.239Z,99.90
2018-10-09T18:26:48.612Z,99.90
2018-10-09T18:29:23.385Z,99.90
2018-10-09T18:31:52.436Z,99.90
2018-10-09T18:34:27.398Z,99.90
2018-10-09T18:36:58.884Z,99.90
2018-10-09T18:42:30.040Z,99.90
2018-10-09T18:45:21.747Z,99.90
2018-10-09T18:47:55.997Z,99.90
2018-10-09T18:50:28.373Z,99.90
2018-10-09T18:53:02.133Z,99.90
2018-10-09T18:55:37.621Z,99.90
2018-10-09T18:58:09.904Z,99.90
2018-10-09T19:00:40.070Z,99.90
2018-10-09T19:03:09.318Z,99.90
2018-10-09T19:10:22.176Z,99.90
2018-10-09T19:13:07.907Z,99.90
2018-10-09T19:15:40.982Z,99.90
2018-10-09T19:18:40.101Z,99.90
2018-10-09T19:21:14.552Z,99.90
2018-10-09T19:23:45.661Z,99.90
2018-10-09T19:26:16.718Z,99.90
2018-10-09T19:28:49.333Z,99.90
2018-10-09T19:31:19.952Z,99.90
2018-10-09T19:33:56.557Z,99.90
2018-10-09T19:36:30.548Z,99.90
2018-10-09T19:39:19.027Z,99.90
2018-10-09T19:41:54.344Z,99.90
2018-10-09T19:44:24.091Z,99.90
2018-10-09T19:46:57.668Z,99.90
2018-10-09T19:49:42.549Z,99.90
2018-10-09T19:52:16.618Z,99.90
2018-10-09T19:54:51.830Z,99.90
2018-10-09T19:57:23.660Z,99.90
2018-10-09T19:59:55.866Z,99.90
2018-10-09T20:02:27.195Z,99.90
2018-10-09T20:04:57.741Z,99.90
2018-10-09T20:07:28.868Z,99.90
2018-10-09T20:10:00.979Z,99.90
2018-10-09T20:12:29.959Z,99.90
2018-10-09T20:15:00.462Z,99.90
2018-10-09T20:17:34.908Z,99.90
2018-10-09T20:20:05.811Z,99.90
2018-10-09T20:22:39.009Z,99.90
2018-10-09T20:25:09.828Z,99.90
2018-10-09T20:27:41.606Z,99.90
2018-10-09T20:30:14.753Z,99.90
2018-10-09T20:32:49.522Z,99.90
2018-10-09T20:35:21.643Z,99.90
2018-10-09T20:37:53.149Z,99.90
2018-10-09T20:40:26.832Z,99.90
2018-10-09T20:42:57.821Z,99.90
2018-10-09T20:45:29.116Z,99.90
2018-10-09T20:47:58.414Z,99.90
2018-10-09T20:50:29.881Z,99.90
2018-10-09T20:53:17.045Z,99.90
2018-10-09T20:55:48.085Z,99.90
2018-10-09T20:58:20.003Z,99.90
2018-10-09T21:00:51.947Z,99.90
2018-10-09T21:03:23.760Z,99.90
2018-10-09T21:05:54.890Z,99.90
2018-10-09T21:08:24.103Z,99.90
2018-10-09T21:11:03.847Z,99.90
2018-10-09T21:13:34.907Z,99.90
2018-10-09T21:16:06.718Z,99.90
2018-10-09T21:18:38.745Z,99.90
2018-10-09T21:21:10.471Z,99.90
2018-10-09T21:23:44.003Z,99.90
2018-10-09T21:26:13.550Z,99.90
2018-10-09T21:28:43.925Z,99.90
2018-10-09T21:31:16.060Z,99.90
2018-10-09T21:33:48.721Z,99.90
2018-10-09T21:36:18.936Z,99.90
2018-10-09T21:38:49.363Z,99.90
2018-10-09T21:41:24.393Z,99.90
2018-10-09T21:43:54.987Z,99.90
2018-10-09T21:46:25.993Z,99.90
2018-10-09T21:48:55.009Z,99.90
2018-10-09T21:51:27.450Z,99.90
2018-10-09T21:53:59.043Z,99.90
2018-10-09T21:56:30.326Z,99.90
2018-10-09T21:59:01.185Z,99.90
2018-10-09T22:01:33.196Z,99.90
2018-10-09T22:04:02.354Z,99.90
2018-10-09T22:06:33.651Z,99.90
2018-10-09T22:09:03.035Z,99.90
2018-10-09T22:11:33.023Z,99.90
2018-10-09T22:14:02.610Z,99.90
2018-10-09T22:16:31.321Z,99.90
2018-10-09T22:19:00.048Z,99.90
2018-10-09T22:21:31.031Z,99.90
2018-10-09T22:24:00.397Z,99.90
2018-10-09T22:26:29.682Z,99.90
2018-10-09T22:28:59.237Z,99.90
2018-10-09T22:31:29.735Z,99.90
2018-10-09T22:33:58.479Z,99.90
2018-10-09T22:36:27.063Z,99.90
2018-10-09T22:38:55.916Z,99.90
2018-10-09T22:41:26.991Z,99.90
2018-10-09T22:43:58.554Z,99.90
2018-10-09T22:46:31.943Z,99.90
2018-10-09T22:49:06.465Z,99.90
2018-10-09T22:51:39.662Z,99.90
2018-10-09T22:54:14.055Z,99.90
2018-10-09T22:56:46.657Z,99.90
2018-10-09T22:59:19.436Z,99.90
2018-10-09T23:01:48.924Z,99.90
2018-10-09T23:04:18.994Z,99.90
2018-10-09T23:06:47.793Z,99.90
2018-10-09T23:09:18.356Z,99.90
2018-10-09T23:11:47.329Z,99.90
2018-10-09T23:14:18.540Z,99.90
2018-10-09T23:16:47.728Z,99.90
2018-10-09T23:19:18.800Z,99.90
2018-10-09T23:21:49.089Z,99.90
2018-10-09T23:24:19.251Z,99.90
2018-10-09T23:26:50.046Z,99.90
2018-10-09T23:29:21.628Z,99.90
2018-10-09T23:31:51.287Z,99.90
2018-10-09T23:34:20.964Z,99.90
2018-10-09T23:36:51.057Z,99.90
2018-10-09T23:39:21.050Z,99.90
2018-10-09T23:41:50.054Z,99.90
2018-10-09T23:44:18.857Z,99.90
2018-10-09T23:46:48.455Z,99.90
2018-10-09T23:49:17.754Z,99.90
2018-10-09T23:51:49.041Z,99.90
2018-10-09T23:54:18.829Z,99.90
2018-10-09T23:56:47.858Z,99.90
2018-10-09T23:59:18.106Z,99.90
